createdAt,value
2022-11-16T00:00:17.538Z,14.63
2022-11-16T00:02:44.727Z,10.52
2022-11-16T00:05:12.061Z,11.90
2022-11-16T00:07:39.285Z,12.30
2022-11-16T00:10:06.649Z,14.48
2022-11-16T00:12:33.913Z,11.25
2022-11-16T00:15:01.147Z,12.93
2022-11-16T00:17:28.364Z,11.45
2022-11-16T00:19:55.607Z,12.15
2022-11-16T00:22:22.783Z,10.38
2022-11-16T00:24:49.974Z,12.55
2022-11-16T00:27:17.484Z,5.18
2022-11-16T00:29:44.743Z,15.10
2022-11-16T00:32:12.455Z,10.82
2022-11-16T00:34:39.828Z,15.50
2022-11-16T00:37:07.199Z,14.88
2022-11-16T00:39:34.448Z,19.08
2022-11-16T00:42:01.651Z,12.32
2022-11-16T00:44:28.932Z,5.72
2022-11-16T00:46:56.224Z,11.90
2022-11-16T00:49:23.531Z,8.75
2022-11-16T00:51:50.779Z,6.90
2022-11-16T00:54:18.098Z,1.55
2022-11-16T00:56:45.375Z,5.88
2022-11-16T00:59:12.985Z,8.10
2022-11-16T01:01:42.334Z,6.72
2022-11-16T01:04:09.618Z,1.38
2022-11-16T01:06:36.785Z,1.80
2022-11-16T01:09:03.988Z,6.93
2022-11-16T01:11:49.921Z,5.22
2022-11-16T01:14:17.182Z,3.50
2022-11-16T01:16:44.332Z,2.95
2022-11-16T01:19:11.542Z,2.92
2022-11-16T01:21:38.738Z,4.43
2022-11-16T01:24:05.982Z,6.70
2022-11-16T01:26:33.178Z,4.38
2022-11-16T01:29:00.412Z,2.95
2022-11-16T01:31:31.813Z,15.07
2022-11-16T01:34:01.288Z,6.55
2022-11-16T01:36:29.684Z,11.02
2022-11-16T01:38:59.304Z,5.43
2022-11-16T01:41:30.532Z,5.50
2022-11-16T01:44:00.244Z,5.13
2022-11-16T01:46:33.177Z,4.03
2022-11-16T01:49:01.366Z,9.82
2022-11-16T01:51:28.563Z,9.23
2022-11-16T01:53:56.040Z,5.35
2022-11-16T01:56:23.286Z,3.53
2022-11-16T01:59:09.173Z,7.25
2022-11-16T02:01:36.425Z,12.50
2022-11-16T02:04:05.084Z,9.25
2022-11-16T02:06:33.611Z,14.05
2022-11-16T02:09:32.133Z,17.13
2022-11-16T02:12:04.104Z,12.43
2022-11-16T02:14:31.450Z,24.60
2022-11-16T02:16:59.353Z,6.72
2022-11-16T02:19:32.001Z,9.43
2022-11-16T02:21:59.261Z,10.25
2022-11-16T02:24:27.047Z,15.45
2022-11-16T02:26:54.344Z,19.70
2022-11-16T02:29:21.567Z,12.70
2022-11-16T02:31:48.857Z,16.40
2022-11-16T02:34:16.109Z,19.55
2022-11-16T02:36:43.647Z,15.82
2022-11-16T02:39:10.795Z,11.98
2022-11-16T02:41:38.060Z,12.63
2022-11-16T02:44:05.432Z,8.18
2022-11-16T02:46:33.695Z,25.02
2022-11-16T02:49:02.472Z,9.15
2022-11-16T02:51:29.743Z,17.73
2022-11-16T02:53:58.432Z,14.02
2022-11-16T02:56:26.432Z,15.27
2022-11-16T02:58:53.748Z,12.20
2022-11-16T03:01:21.087Z,13.82
2022-11-16T03:03:48.383Z,12.13
2022-11-16T03:06:15.806Z,8.82
2022-11-16T03:08:44.018Z,7.95
2022-11-16T03:11:29.937Z,10.40
2022-11-16T03:13:59.721Z,12.50
2022-11-16T03:16:26.877Z,15.95
2022-11-16T03:18:54.165Z,11.60
2022-11-16T03:21:23.833Z,8.90
2022-11-16T03:23:51.064Z,9.68
2022-11-16T03:26:19.384Z,8.23
2022-11-16T03:28:46.615Z,4.55
2022-11-16T03:31:13.887Z,15.70
2022-11-16T03:33:41.391Z,6.28
2022-11-16T03:36:08.573Z,11.23
2022-11-16T03:38:36.162Z,7.95
2022-11-16T03:41:03.983Z,11.23
2022-11-16T03:43:31.433Z,13.77
2022-11-16T03:46:00.350Z,9.00
2022-11-16T03:48:27.705Z,9.68
2022-11-16T03:50:55.003Z,11.27
2022-11-16T03:53:22.315Z,13.40
2022-11-16T03:55:50.068Z,12.18
2022-11-16T03:58:18.739Z,7.38
2022-11-16T04:00:46.400Z,14.35
2022-11-16T04:03:13.955Z,13.85
2022-11-16T04:06:00.212Z,8.30
2022-11-16T04:08:46.373Z,7.18
2022-11-16T04:11:33.136Z,11.07
2022-11-16T04:14:19.244Z,15.13
2022-11-16T04:17:05.231Z,13.20
2022-11-16T04:19:56.764Z,8.52
2022-11-16T04:22:45.648Z,8.65
2022-11-16T04:25:13.589Z,5.10
2022-11-16T04:27:59.588Z,7.68
2022-11-16T04:30:47.265Z,8.98
2022-11-16T04:33:33.479Z,3.25
2022-11-16T04:36:20.868Z,5.65
2022-11-16T04:38:48.576Z,9.32
2022-11-16T04:41:35.297Z,12.52
2022-11-16T04:44:02.619Z,6.45
2022-11-16T04:46:48.854Z,5.30
2022-11-16T04:49:17.700Z,6.00
2022-11-16T04:51:44.940Z,11.25
2022-11-16T04:54:12.207Z,6.35
2022-11-16T04:56:39.478Z,6.32
2022-11-16T04:59:06.812Z,1.70
2022-11-16T05:02:01.230Z,4.45
2022-11-16T05:04:29.603Z,6.97
2022-11-16T05:06:56.854Z,5.57
2022-11-16T05:09:24.099Z,7.75
2022-11-16T05:11:51.361Z,7.53
2022-11-16T05:14:18.591Z,9.30
2022-11-16T05:16:45.847Z,9.35
2022-11-16T05:19:31.922Z,7.38
2022-11-16T05:22:01.443Z,4.88
2022-11-16T05:24:35.181Z,6.75
2022-11-16T05:27:03.952Z,5.20
2022-11-16T05:29:31.648Z,11.05
2022-11-16T05:31:58.868Z,4.97
2022-11-16T05:34:27.161Z,6.18
2022-11-16T05:36:54.490Z,8.40
2022-11-16T05:39:21.951Z,6.07
2022-11-16T05:41:51.400Z,10.10
2022-11-16T05:44:18.772Z,3.30
2022-11-16T05:46:46.168Z,4.53
2022-11-16T05:49:13.437Z,7.15
2022-11-16T05:51:40.974Z,8.43
2022-11-16T05:54:08.305Z,3.92
2022-11-16T05:56:35.737Z,4.35
2022-11-16T05:59:03.237Z,6.97
2022-11-16T06:01:30.533Z,4.93
2022-11-16T06:03:57.883Z,9.88
2022-11-16T06:06:25.103Z,10.73
2022-11-16T06:08:52.836Z,4.18
2022-11-16T06:11:24.568Z,7.30
2022-11-16T06:13:51.987Z,7.32
2022-11-16T06:16:19.196Z,6.35
2022-11-16T06:18:46.986Z,16.67
2022-11-16T06:21:15.710Z,16.15
2022-11-16T06:23:43.004Z,26.30
2022-11-16T06:26:10.332Z,10.68
2022-11-16T06:28:38.251Z,11.98
2022-11-16T06:31:05.522Z,13.57
2022-11-16T06:33:36.863Z,12.40
2022-11-16T06:36:08.887Z,23.95
2022-11-16T06:38:37.348Z,13.18
2022-11-16T06:41:04.700Z,10.60
2022-11-16T06:43:37.477Z,12.43
2022-11-16T06:46:05.244Z,11.02
2022-11-16T06:48:33.866Z,16.05
2022-11-16T06:51:03.569Z,18.67
2022-11-16T06:53:30.760Z,18.88
2022-11-16T06:56:00.547Z,14.63
2022-11-16T06:58:27.890Z,6.85
2022-11-16T07:00:55.107Z,19.98
2022-11-16T07:03:23.278Z,17.17
2022-11-16T07:05:51.312Z,21.10
2022-11-16T07:08:20.119Z,6.93
2022-11-16T07:10:47.844Z,12.27
2022-11-16T07:13:15.068Z,13.38
2022-11-16T07:15:42.304Z,12.05
2022-11-16T07:18:09.727Z,23.40
2022-11-16T07:20:39.459Z,15.07
2022-11-16T07:23:11.349Z,26.77
2022-11-16T07:25:41.550Z,21.40
2022-11-16T07:28:09.281Z,11.23
2022-11-16T07:30:36.738Z,9.75
2022-11-16T07:33:10.487Z,10.23
2022-11-16T07:36:06.725Z,15.43
2022-11-16T07:38:34.334Z,26.65
2022-11-16T07:41:01.783Z,12.27
2022-11-16T07:43:36.996Z,23.80
2022-11-16T07:49:01.168Z,21.67
2022-11-16T07:51:47.211Z,21.50
2022-11-16T07:54:32.108Z,17.63
2022-11-16T07:56:59.313Z,13.00
2022-11-16T07:59:27.550Z,7.05
2022-11-16T08:01:59.371Z,11.93
2022-11-16T08:04:27.819Z,10.23
2022-11-16T08:06:55.178Z,30.55
2022-11-16T08:09:23.529Z,10.02
2022-11-16T08:11:51.779Z,10.18
2022-11-16T08:14:19.600Z,14.70
2022-11-16T08:16:49.266Z,9.20
2022-11-16T08:19:17.785Z,13.85
2022-11-16T08:21:45.835Z,10.38
2022-11-16T08:24:14.778Z,6.15
2022-11-16T08:26:43.707Z,11.50
2022-11-16T08:29:15.164Z,8.43
2022-11-16T08:31:47.757Z,6.22
2022-11-16T08:34:18.646Z,10.77
2022-11-16T08:36:49.840Z,6.13
2022-11-16T08:39:19.299Z,12.23
2022-11-16T08:41:46.495Z,9.27
2022-11-16T08:44:15.732Z,7.00
2022-11-16T08:46:46.468Z,6.13
2022-11-16T08:49:20.930Z,4.32
2022-11-16T08:51:48.406Z,5.45
2022-11-16T08:54:15.666Z,10.73
2022-11-16T08:56:44.091Z,7.53
2022-11-16T08:59:13.186Z,8.50
2022-11-16T09:01:46.056Z,5.25
2022-11-16T09:04:13.320Z,8.02
2022-11-16T09:06:40.472Z,8.88
2022-11-16T09:09:07.725Z,9.05
2022-11-16T09:11:35.039Z,5.53
2022-11-16T09:14:02.265Z,14.77
2022-11-16T09:16:29.414Z,15.77
2022-11-16T09:18:56.721Z,8.48
2022-11-16T09:21:23.871Z,14.43
2022-11-16T09:23:51.193Z,4.82
2022-11-16T09:26:21.249Z,5.82
2022-11-16T09:28:48.601Z,8.32
2022-11-16T09:31:20.378Z,7.40
2022-11-16T09:36:17.828Z,12.38
2022-11-16T09:41:32.203Z,11.40
2022-11-16T09:43:59.463Z,8.57
2022-11-16T09:46:26.758Z,15.70
2022-11-16T09:48:54.023Z,10.95
2022-11-16T09:51:21.259Z,13.52
2022-11-16T09:53:48.446Z,14.02
2022-11-16T09:56:21.847Z,12.15
2022-11-16T09:58:49.591Z,8.07
2022-11-16T10:01:16.816Z,11.27
2022-11-16T10:03:44.073Z,7.53
2022-11-16T10:06:11.234Z,4.18
2022-11-16T10:08:38.420Z,5.80
2022-11-16T10:11:05.669Z,9.55
2022-11-16T10:13:33.223Z,7.20
2022-11-16T10:16:00.800Z,6.55
2022-11-16T10:18:28.060Z,7.32
2022-11-16T10:20:55.196Z,10.75
2022-11-16T10:23:22.421Z,9.05
2022-11-16T10:25:49.716Z,3.08
2022-11-16T10:28:16.881Z,7.32
2022-11-16T10:30:44.077Z,2.67
2022-11-16T10:33:11.633Z,6.32
2022-11-16T10:35:39.690Z,12.82
2022-11-16T10:38:06.861Z,14.98
2022-11-16T10:40:34.109Z,11.57
2022-11-16T10:43:01.332Z,12.75
2022-11-16T10:45:28.528Z,13.63
2022-11-16T10:47:55.788Z,11.80
2022-11-16T10:50:23.060Z,9.98
2022-11-16T10:52:50.198Z,16.00
2022-11-16T10:55:17.420Z,11.10
2022-11-16T10:57:44.571Z,13.35
2022-11-16T11:00:13.429Z,11.63
2022-11-16T11:02:45.492Z,3.10
2022-11-16T11:05:12.744Z,13.00
2022-11-16T11:07:40.250Z,12.48
2022-11-16T11:10:07.549Z,19.08
2022-11-16T11:12:41.221Z,17.38
2022-11-16T11:15:08.579Z,11.73
2022-11-16T11:17:35.749Z,22.58
2022-11-16T11:20:04.274Z,13.43
2022-11-16T11:22:31.760Z,6.50
2022-11-16T11:24:58.963Z,13.50
2022-11-16T11:27:26.097Z,6.80
2022-11-16T11:29:53.950Z,13.70
2022-11-16T11:32:24.451Z,17.20
2022-11-16T11:34:52.084Z,20.52
2022-11-16T11:37:19.334Z,5.45
2022-11-16T11:39:46.593Z,13.90
2022-11-16T11:42:13.753Z,6.90
2022-11-16T11:44:40.980Z,8.07
2022-11-16T11:49:55.317Z,9.63
2022-11-16T11:52:22.588Z,14.18
2022-11-16T11:54:49.818Z,9.65
2022-11-16T11:57:20.641Z,5.35
2022-11-16T11:59:47.870Z,5.85
2022-11-16T12:02:15.046Z,5.82
2022-11-16T12:04:42.351Z,6.50
2022-11-16T12:07:12.027Z,10.75
2022-11-16T12:09:40.699Z,5.15
2022-11-16T12:12:13.338Z,6.35
2022-11-16T12:14:41.792Z,10.27
2022-11-16T12:17:08.986Z,12.20
2022-11-16T12:19:36.203Z,17.83
2022-11-16T12:22:03.385Z,11.73
2022-11-16T12:24:30.766Z,9.40
2022-11-16T12:26:57.935Z,13.98
2022-11-16T12:29:26.107Z,10.55
2022-11-16T12:31:53.333Z,9.70
2022-11-16T12:34:20.508Z,11.52
2022-11-16T12:36:47.651Z,15.85
2022-11-16T12:39:14.885Z,12.77
2022-11-16T12:41:42.034Z,14.13
2022-11-16T12:44:09.214Z,14.13
2022-11-16T12:46:36.495Z,11.05
2022-11-16T12:49:03.719Z,22.85
2022-11-16T12:51:32.093Z,13.55
2022-11-16T12:53:59.453Z,17.88
2022-11-16T12:56:26.675Z,19.80
2022-11-16T12:58:53.906Z,16.77
2022-11-16T13:01:21.173Z,18.25
2022-11-16T13:03:48.379Z,19.92
2022-11-16T13:06:15.599Z,14.10
2022-11-16T13:08:42.893Z,18.33
2022-11-16T13:11:10.098Z,10.68
2022-11-16T13:13:37.498Z,13.45
2022-11-16T13:16:04.931Z,11.85
2022-11-16T13:18:32.097Z,14.50
2022-11-16T13:20:59.292Z,13.60
2022-11-16T13:23:26.491Z,15.00
2022-11-16T13:25:53.698Z,18.58
2022-11-16T13:28:20.924Z,15.20
2022-11-16T13:30:48.556Z,15.55
2022-11-16T13:33:15.721Z,20.63
2022-11-16T13:35:42.870Z,6.88
2022-11-16T13:38:10.238Z,14.50
2022-11-16T13:40:37.524Z,10.48
2022-11-16T13:43:04.748Z,10.32
2022-11-16T13:45:31.970Z,10.32
2022-11-16T13:47:59.136Z,8.13
2022-11-16T13:50:26.394Z,14.55
2022-11-16T13:55:40.781Z,13.43
2022-11-16T13:58:08.005Z,16.17
2022-11-16T14:00:35.242Z,10.38
2022-11-16T14:03:02.492Z,15.18
2022-11-16T14:05:29.761Z,14.85
2022-11-16T14:07:56.976Z,14.55
2022-11-16T14:10:24.098Z,16.35
2022-11-16T14:12:52.745Z,9.20
2022-11-16T14:15:20.003Z,16.48
2022-11-16T14:17:47.237Z,11.90
2022-11-16T14:20:17.154Z,16.23
2022-11-16T14:22:48.435Z,9.80
2022-11-16T14:25:15.689Z,16.60
2022-11-16T14:27:42.891Z,8.15
2022-11-16T14:30:10.049Z,17.55
2022-11-16T14:32:42.528Z,15.20
2022-11-16T14:35:10.410Z,13.77
2022-11-16T14:37:37.603Z,16.73
2022-11-16T14:40:04.837Z,14.25
2022-11-16T14:42:42.970Z,16.48
2022-11-16T14:45:19.333Z,20.60
2022-11-16T14:47:46.477Z,10.95
2022-11-16T14:50:13.687Z,27.90
2022-11-16T14:52:40.885Z,22.02
2022-11-16T14:55:08.136Z,18.80
2022-11-16T14:57:35.396Z,17.70
2022-11-16T15:00:02.725Z,24.83
2022-11-16T15:02:29.924Z,20.23
2022-11-16T15:04:57.200Z,24.20
2022-11-16T15:07:24.431Z,18.98
2022-11-16T15:09:51.666Z,20.85
2022-11-16T15:12:37.676Z,21.45
2022-11-16T15:15:05.431Z,22.63
2022-11-16T15:17:33.619Z,20.20
2022-11-16T15:20:00.885Z,27.15
2022-11-16T15:22:28.150Z,19.52
2022-11-16T15:24:55.440Z,18.02
2022-11-16T15:27:22.600Z,25.20
2022-11-16T15:29:49.898Z,21.52
2022-11-16T15:32:17.086Z,36.40
2022-11-16T15:34:44.322Z,26.52
2022-11-16T15:37:11.695Z,26.00
2022-11-16T15:39:38.916Z,31.85
2022-11-16T15:42:06.152Z,35.92
2022-11-16T15:44:33.361Z,38.97
2022-11-16T15:47:00.715Z,36.53
2022-11-16T15:49:28.126Z,35.47
2022-11-16T15:51:55.303Z,32.47
2022-11-16T15:54:22.515Z,17.23
2022-11-16T15:56:49.662Z,27.05
2022-11-16T15:59:16.881Z,39.85
2022-11-16T16:01:44.071Z,35.90
2022-11-16T16:04:11.455Z,22.92
2022-11-16T16:06:38.586Z,32.03
2022-11-16T16:09:05.823Z,28.08
2022-11-16T16:11:32.986Z,35.13
2022-11-16T16:14:00.233Z,33.00
2022-11-16T16:16:28.035Z,20.20
2022-11-16T16:18:55.288Z,29.88
2022-11-16T16:21:24.279Z,30.45
2022-11-16T16:23:51.486Z,26.88
2022-11-16T16:26:18.768Z,20.85
2022-11-16T16:28:46.016Z,28.83
2022-11-16T16:31:13.533Z,24.73
2022-11-16T16:33:40.817Z,29.85
2022-11-16T16:36:08.152Z,30.70
2022-11-16T16:38:36.265Z,35.70
2022-11-16T16:41:05.730Z,42.15
2022-11-16T16:43:33.308Z,44.00
2022-11-16T16:46:00.630Z,46.70
2022-11-16T16:48:27.939Z,41.78
2022-11-16T16:50:55.098Z,43.22
2022-11-16T16:53:22.358Z,37.10
2022-11-16T16:55:49.610Z,49.25
2022-11-16T16:58:16.829Z,38.13
2022-11-16T17:00:44.117Z,57.60
2022-11-16T17:03:11.388Z,60.55
2022-11-16T17:05:38.629Z,37.42
2022-11-16T17:08:05.857Z,43.70
2022-11-16T17:10:33.096Z,53.70
2022-11-16T17:13:03.004Z,50.97
2022-11-16T17:15:30.213Z,42.75
2022-11-16T17:17:57.535Z,47.13
2022-11-16T17:20:24.699Z,64.10
2022-11-16T17:22:51.908Z,49.72
2022-11-16T17:25:20.852Z,50.47
2022-11-16T17:27:48.087Z,35.85
2022-11-16T17:30:15.320Z,56.22
2022-11-16T17:32:42.622Z,45.60
2022-11-16T17:35:09.971Z,42.40
2022-11-16T17:37:37.214Z,39.00
2022-11-16T17:40:04.470Z,32.20
2022-11-16T17:42:31.672Z,39.80
2022-11-16T17:44:58.830Z,37.95
2022-11-16T17:47:26.454Z,45.35
2022-11-16T17:49:53.683Z,29.38
2022-11-16T17:52:20.885Z,39.78
2022-11-16T17:54:48.142Z,28.00
2022-11-16T17:57:15.348Z,21.45
2022-11-16T17:59:42.709Z,28.15
2022-11-16T18:02:10.007Z,26.63
2022-11-16T18:04:37.242Z,37.55
2022-11-16T18:07:04.438Z,36.25
2022-11-16T18:09:33.030Z,37.33
2022-11-16T18:12:00.492Z,19.77
2022-11-16T18:14:27.712Z,35.03
2022-11-16T18:16:54.939Z,32.13
2022-11-16T18:19:22.102Z,20.42
2022-11-16T18:21:49.480Z,30.30
2022-11-16T18:24:16.781Z,27.70
2022-11-16T18:26:43.963Z,19.15
2022-11-16T18:29:15.383Z,30.95
2022-11-16T18:31:42.643Z,27.42
2022-11-16T18:34:09.863Z,26.23
2022-11-16T18:36:37.124Z,25.60
2022-11-16T18:39:04.343Z,24.00
2022-11-16T18:41:31.870Z,22.95
2022-11-16T18:43:59.035Z,21.17
2022-11-16T18:46:26.353Z,26.95
2022-11-16T18:48:53.525Z,20.17
2022-11-16T18:51:20.715Z,13.93
2022-11-16T18:53:47.963Z,12.82
2022-11-16T18:56:15.253Z,19.88
2022-11-16T18:58:52.052Z,17.55
2022-11-16T19:01:20.065Z,13.98
2022-11-16T19:03:47.295Z,12.85
2022-11-16T19:06:17.095Z,9.20
2022-11-16T19:08:44.344Z,18.75
2022-11-16T19:11:11.638Z,19.55
2022-11-16T19:13:38.845Z,13.00
2022-11-16T19:16:06.155Z,14.43
2022-11-16T19:18:33.316Z,21.98
2022-11-16T19:21:00.616Z,34.20
2022-11-16T19:23:27.848Z,21.70
2022-11-16T19:25:55.051Z,23.38
2022-11-16T19:28:22.219Z,24.17
2022-11-16T19:30:49.445Z,11.02
2022-11-16T19:33:16.588Z,24.77
2022-11-16T19:35:43.788Z,14.18
2022-11-16T19:38:10.948Z,10.95
2022-11-16T19:40:39.481Z,15.27
2022-11-16T19:43:06.718Z,26.63
2022-11-16T19:45:34.028Z,12.50
2022-11-16T19:48:01.179Z,21.05
2022-11-16T19:50:28.502Z,21.85
2022-11-16T19:52:55.744Z,11.52
2022-11-16T19:55:22.975Z,9.98
2022-11-16T19:57:50.140Z,13.23
2022-11-16T20:00:17.386Z,21.20
2022-11-16T20:02:44.587Z,11.65
2022-11-16T20:05:11.824Z,20.00
2022-11-16T20:07:39.060Z,22.60
2022-11-16T20:10:06.290Z,27.52
2022-11-16T20:12:33.525Z,11.90
2022-11-16T20:15:02.845Z,19.67
2022-11-16T20:17:30.088Z,18.27
2022-11-16T20:19:57.409Z,8.60
2022-11-16T20:22:24.636Z,12.60
2022-11-16T20:24:52.008Z,11.07
2022-11-16T20:27:19.196Z,8.88
2022-11-16T20:29:46.450Z,7.97
2022-11-16T20:32:13.725Z,14.65
2022-11-16T20:34:41.031Z,25.35
2022-11-16T20:37:08.630Z,23.70
2022-11-16T20:39:36.100Z,13.85
2022-11-16T20:42:03.358Z,22.10
2022-11-16T20:44:31.281Z,13.20
2022-11-16T20:46:58.435Z,19.90
2022-11-16T20:49:26.849Z,23.92
2022-11-16T20:51:54.044Z,9.75
2022-11-16T20:54:21.281Z,12.00
2022-11-16T20:56:49.747Z,13.52
2022-11-16T20:59:17.019Z,14.65
2022-11-16T21:01:47.788Z,2.38
2022-11-16T21:04:15.233Z,4.20
2022-11-16T21:06:42.592Z,3.58
2022-11-16T21:09:09.787Z,6.30
2022-11-16T21:11:55.637Z,11.98
2022-11-16T21:14:22.844Z,13.90
2022-11-16T21:16:50.045Z,10.68
2022-11-16T21:19:17.316Z,5.50
2022-11-16T21:21:44.591Z,11.25
2022-11-16T21:24:11.781Z,13.35
2022-11-16T21:26:39.077Z,12.15
2022-11-16T21:29:06.671Z,11.73
2022-11-16T21:31:33.928Z,11.70
2022-11-16T21:34:01.302Z,18.65
2022-11-16T21:36:28.449Z,12.55
2022-11-16T21:38:55.749Z,16.10
2022-11-16T21:41:23.033Z,9.60
2022-11-16T21:43:50.298Z,12.60
2022-11-16T21:46:17.461Z,23.00
2022-11-16T21:48:44.760Z,14.25
2022-11-16T21:51:11.908Z,18.15
2022-11-16T21:53:39.196Z,11.00
2022-11-16T21:56:06.430Z,19.23
2022-11-16T21:58:33.638Z,16.67
2022-11-16T22:01:00.940Z,18.15
2022-11-16T22:03:28.163Z,10.80
2022-11-16T22:06:14.135Z,27.17
2022-11-16T22:08:41.359Z,20.50
2022-11-16T22:11:08.532Z,17.95
2022-11-16T22:13:36.009Z,23.33
2022-11-16T22:16:03.425Z,55.20
2022-11-16T22:18:30.932Z,42.88
2022-11-16T22:20:58.108Z,38.80
2022-11-16T22:23:25.310Z,63.13
2022-11-16T22:25:52.655Z,35.38
2022-11-16T22:28:21.360Z,50.60
2022-11-16T22:30:51.660Z,52.85
2022-11-16T22:33:19.514Z,56.15
2022-11-16T22:35:46.769Z,60.17
2022-11-16T22:38:13.962Z,50.00
2022-11-16T22:40:41.118Z,101.82
2022-11-16T22:43:08.392Z,72.00
2022-11-16T22:45:35.547Z,81.18
2022-11-16T22:48:02.782Z,78.95
2022-11-16T22:50:29.969Z,87.32
2022-11-16T22:52:57.186Z,85.40
2022-11-16T22:55:24.319Z,90.93
2022-11-16T22:57:52.048Z,75.80
2022-11-16T23:00:19.979Z,74.75
2022-11-16T23:02:47.254Z,122.03
2022-11-16T23:05:14.588Z,95.65
2022-11-16T23:07:43.907Z,81.45
2022-11-16T23:10:11.685Z,92.22
2022-11-16T23:12:57.736Z,122.45
2022-11-16T23:15:43.606Z,101.13
2022-11-16T23:18:10.844Z,93.72
2022-11-16T23:20:56.748Z,108.40
2022-11-16T23:23:47.271Z,81.90
2022-11-16T23:26:33.407Z,96.53
2022-11-16T23:29:00.679Z,84.18
2022-11-16T23:31:27.859Z,104.65
2022-11-16T23:33:55.087Z,89.13
2022-11-16T23:36:22.270Z,77.85
2022-11-16T23:38:49.426Z,97.40
2022-11-16T23:41:35.574Z,68.88
2022-11-16T23:44:02.829Z,64.40
2022-11-16T23:46:30.062Z,69.68
2022-11-16T23:48:57.353Z,48.38
2022-11-16T23:51:24.560Z,49.13
2022-11-16T23:53:51.863Z,52.50
2022-11-16T23:56:19.048Z,45.22
2022-11-16T23:58:46.327Z,46.25
